Belington, West Virginia
Current Conditions -  °F | °C
As of 8:51 PM on Wednesday 22 Oct 2014 (Local Time) from KEKN Reporting Station
Overcast Overcast  
Wind Chill: 41°   Ceiling: 1500
Heat Index: 44°   Visibility: 10mi
Dew Point: 42°   Wind: 6mph
Humidity: 93%   Direction: NA
Pressure: 30.16"   Gusts: NA
Location:  39.03°N, 79.94°W
Report Text: KEKN 230051Z AUTO VRB05KT 10SM BKN015 OVC021 07/06 A3016 RMK AO2 RAB2358E31 SLP226 P0000 T00670056 TSNO
Loading
Personal Weather Stations






























Interactive Weather Map
Tropical Storm Tracking
New forecast layout! Learn more

10-Day Weather Forecast

Advertisements
Track Severe Weather on mobile